createdAt,value
2023-06-21T00:01:41.949Z,39.62
2023-06-21T00:04:09.364Z,39.45
2023-06-21T00:06:36.262Z,39.53
2023-06-21T00:09:04.572Z,39.27
2023-06-21T00:11:32.456Z,39.57
2023-06-21T00:13:59.349Z,39.49
2023-06-21T00:16:26.133Z,39.39
2023-06-21T00:18:52.841Z,39.56
2023-06-21T00:21:19.559Z,39.39
2023-06-21T00:23:46.524Z,39.57
2023-06-21T00:26:13.299Z,39.49
2023-06-21T00:28:39.976Z,39.57
2023-06-21T00:31:09.978Z,39.74
2023-06-21T00:33:38.125Z,39.51
2023-06-21T00:36:05.936Z,39.96
2023-06-21T00:38:36.133Z,39.98
2023-06-21T00:41:06.538Z,39.90
2023-06-21T00:43:33.665Z,40.17
2023-06-21T00:46:01.216Z,40.46
2023-06-21T00:48:30.730Z,40.40
2023-06-21T00:50:59.536Z,40.47
2023-06-21T00:53:28.600Z,40.58
2023-06-21T00:55:59.616Z,40.63
2023-06-21T00:58:26.404Z,40.73
2023-06-21T01:00:54.298Z,40.92
2023-06-21T01:03:22.604Z,40.71
2023-06-21T01:06:15.323Z,41.09
2023-06-21T01:09:01.474Z,41.20
2023-06-21T01:11:32.316Z,40.99
2023-06-21T01:14:23.877Z,40.71
2023-06-21T01:16:53.600Z,40.78
2023-06-21T01:19:49.291Z,40.85
2023-06-21T01:22:20.732Z,40.89
2023-06-21T01:25:01.936Z,40.79
2023-06-21T01:27:58.013Z,40.63
2023-06-21T01:30:29.869Z,40.91
2023-06-21T01:32:57.299Z,40.52
2023-06-21T01:35:25.393Z,40.72
2023-06-21T01:37:53.778Z,40.56
2023-06-21T01:40:21.033Z,40.72
2023-06-21T01:42:47.888Z,40.45
2023-06-21T01:45:14.674Z,40.49
2023-06-21T01:47:43.881Z,40.43
2023-06-21T01:50:12.141Z,40.16
2023-06-21T01:52:40.091Z,40.27
2023-06-21T01:55:08.338Z,40.08
2023-06-21T01:57:38.418Z,40.40
2023-06-21T02:00:18.033Z,40.34
2023-06-21T02:02:50.678Z,40.25
2023-06-21T02:05:18.443Z,40.20
2023-06-21T02:07:46.688Z,40.18
2023-06-21T02:10:32.729Z,40.01
2023-06-21T02:12:59.757Z,40.28
2023-06-21T02:15:26.397Z,40.21
2023-06-21T02:17:53.377Z,40.16
2023-06-21T02:20:23.326Z,40.00
2023-06-21T02:22:50.360Z,40.23
2023-06-21T02:25:18.028Z,40.04
2023-06-21T02:27:44.816Z,40.18
2023-06-21T02:30:12.669Z,40.13
2023-06-21T02:32:39.725Z,40.24
2023-06-21T02:35:07.133Z,40.26
2023-06-21T02:37:33.872Z,40.22
2023-06-21T02:40:00.659Z,40.46
2023-06-21T02:42:28.747Z,40.47
2023-06-21T02:44:55.452Z,40.38
2023-06-21T02:47:22.392Z,40.45
2023-06-21T02:49:49.178Z,40.60
2023-06-21T02:52:15.849Z,40.73
2023-06-21T02:55:03.877Z,40.62
2023-06-21T02:57:30.999Z,40.72
2023-06-21T03:00:00.379Z,40.81
2023-06-21T03:02:34.802Z,40.75
2023-06-21T03:05:02.388Z,40.75
2023-06-21T03:07:29.152Z,40.78
2023-06-21T03:09:56.556Z,41.15
2023-06-21T03:12:23.641Z,41.01
2023-06-21T03:14:50.781Z,41.24
2023-06-21T03:17:18.823Z,41.06
2023-06-21T03:19:45.527Z,41.02
2023-06-21T03:22:13.370Z,41.14
2023-06-21T03:24:41.515Z,41.08
2023-06-21T03:27:08.516Z,41.27
2023-06-21T03:29:35.727Z,41.41
2023-06-21T03:32:02.537Z,41.31
2023-06-21T03:34:30.274Z,41.05
2023-06-21T03:36:57.009Z,41.33
2023-06-21T03:39:26.149Z,41.44
2023-06-21T03:41:53.497Z,41.32
2023-06-21T03:44:20.180Z,41.46
2023-06-21T03:46:46.987Z,41.24
2023-06-21T03:49:13.683Z,41.30
2023-06-21T03:51:40.759Z,41.51
2023-06-21T03:54:07.664Z,41.46
2023-06-21T03:56:34.369Z,41.23
2023-06-21T03:59:01.392Z,41.23
2023-06-21T04:01:28.304Z,41.24
2023-06-21T04:03:55.071Z,41.18
2023-06-21T04:06:21.744Z,41.26
2023-06-21T04:08:48.729Z,41.03
2023-06-21T04:11:16.339Z,40.89
2023-06-21T04:13:45.144Z,41.10
2023-06-21T04:16:11.821Z,41.16
2023-06-21T04:18:38.524Z,41.31
2023-06-21T04:21:05.286Z,41.34
2023-06-21T04:23:32.140Z,41.33
2023-06-21T04:25:58.938Z,41.38
2023-06-21T04:28:26.694Z,41.28
2023-06-21T04:30:56.446Z,41.18
2023-06-21T04:33:23.421Z,40.92
2023-06-21T04:35:50.256Z,40.81
2023-06-21T04:38:16.945Z,40.71
2023-06-21T04:40:44.889Z,40.65
2023-06-21T04:43:12.146Z,40.30
2023-06-21T04:45:38.865Z,40.18
2023-06-21T04:48:06.275Z,40.26
2023-06-21T04:50:33.342Z,39.74
2023-06-21T04:53:00.828Z,39.45
2023-06-21T04:55:29.279Z,38.93
2023-06-21T04:57:57.506Z,38.72
2023-06-21T05:00:24.196Z,38.22
2023-06-21T05:02:51.129Z,38.08
2023-06-21T05:05:18.059Z,37.92
2023-06-21T05:07:44.977Z,37.50
2023-06-21T05:10:11.957Z,37.08
2023-06-21T05:12:39.290Z,36.72
2023-06-21T05:15:07.073Z,36.29
2023-06-21T05:17:34.887Z,35.85
2023-06-21T05:20:04.098Z,36.02
2023-06-21T05:22:31.398Z,35.27
2023-06-21T05:24:58.259Z,35.20
2023-06-21T05:27:25.079Z,35.01
2023-06-21T05:29:52.762Z,35.22
2023-06-21T05:32:19.938Z,34.95
2023-06-21T05:34:46.725Z,34.87
2023-06-21T05:37:13.462Z,33.84
2023-06-21T05:39:40.090Z,33.68
2023-06-21T05:42:06.956Z,33.95
2023-06-21T05:44:34.928Z,33.90
2023-06-21T05:47:01.724Z,33.51
2023-06-21T05:49:28.497Z,33.15
2023-06-21T05:51:55.231Z,32.11
2023-06-21T05:54:22.310Z,31.77
2023-06-21T05:56:50.734Z,30.75
2023-06-21T05:59:20.171Z,30.31
2023-06-21T06:01:47.764Z,29.87
2023-06-21T06:04:14.672Z,28.85
2023-06-21T06:06:42.724Z,28.44
2023-06-21T06:09:10.758Z,27.33
2023-06-21T06:11:37.595Z,26.99
2023-06-21T06:14:04.524Z,26.47
2023-06-21T06:16:31.337Z,25.57
2023-06-21T06:18:58.063Z,25.37
2023-06-21T06:21:43.716Z,24.03
2023-06-21T06:24:10.507Z,23.51
2023-06-21T06:26:37.623Z,23.23
2023-06-21T06:29:04.407Z,22.28
2023-06-21T06:31:31.552Z,21.57
2023-06-21T06:33:58.621Z,21.22
2023-06-21T06:36:25.325Z,20.67
2023-06-21T06:38:53.545Z,20.12
2023-06-21T06:41:20.842Z,19.55
2023-06-21T06:43:47.550Z,19.03
2023-06-21T06:46:32.960Z,18.58
2023-06-21T06:48:59.711Z,18.57
2023-06-21T06:51:28.886Z,18.14
2023-06-21T06:53:55.723Z,17.65
2023-06-21T06:56:22.382Z,16.97
2023-06-21T06:58:49.273Z,16.52
2023-06-21T07:01:16.406Z,16.53
2023-06-21T07:03:43.223Z,16.04
2023-06-21T07:06:10.037Z,15.59
2023-06-21T07:08:36.956Z,15.71
2023-06-21T07:11:03.614Z,15.29
2023-06-21T07:13:30.404Z,15.07
2023-06-21T07:15:57.120Z,14.51
2023-06-21T07:18:23.852Z,14.54
2023-06-21T07:20:50.523Z,14.19
2023-06-21T07:23:17.441Z,14.03
2023-06-21T07:25:44.209Z,13.98
2023-06-21T07:28:10.912Z,13.57
2023-06-21T07:30:38.557Z,13.51
2023-06-21T07:33:09.536Z,13.15
2023-06-21T07:35:36.449Z,12.73
2023-06-21T07:38:04.670Z,13.04
2023-06-21T07:40:31.971Z,12.12
2023-06-21T07:42:58.657Z,12.76
2023-06-21T07:45:25.952Z,12.04
2023-06-21T07:47:52.708Z,11.54
2023-06-21T07:50:22.475Z,11.76
2023-06-21T07:52:50.452Z,11.59
2023-06-21T07:55:17.164Z,11.28
2023-06-21T07:57:44.792Z,10.77
2023-06-21T08:00:14.701Z,10.67
2023-06-21T08:02:51.012Z,10.56
2023-06-21T08:05:18.219Z,10.46
2023-06-21T08:07:45.267Z,10.54
2023-06-21T08:10:13.544Z,10.58
2023-06-21T08:12:40.408Z,10.15
2023-06-21T08:15:07.699Z,10.12
2023-06-21T08:17:34.699Z,9.97
2023-06-21T08:20:01.678Z,10.03
2023-06-21T08:22:28.493Z,9.51
2023-06-21T08:24:57.632Z,9.14
2023-06-21T08:27:24.769Z,9.05
2023-06-21T08:29:51.731Z,9.18
2023-06-21T08:32:18.897Z,9.26
2023-06-21T08:34:45.789Z,9.43
2023-06-21T08:37:12.671Z,8.73
2023-06-21T08:39:39.450Z,9.27
2023-06-21T08:42:06.698Z,9.02
2023-06-21T08:44:33.666Z,8.73
2023-06-21T08:47:02.371Z,8.94
2023-06-21T08:49:30.781Z,8.97
2023-06-21T08:52:00.653Z,8.77
2023-06-21T08:54:30.916Z,8.17
2023-06-21T08:57:02.822Z,8.24
2023-06-21T08:59:36.796Z,8.43
2023-06-21T09:02:06.669Z,8.54
2023-06-21T09:04:42.254Z,8.06
2023-06-21T09:07:09.764Z,7.94
2023-06-21T09:09:38.134Z,8.06
2023-06-21T09:12:05.457Z,8.01
2023-06-21T09:14:33.098Z,7.92
2023-06-21T09:17:01.370Z,7.82
2023-06-21T09:19:28.745Z,7.97
2023-06-21T09:21:58.616Z,7.99
2023-06-21T09:24:25.392Z,7.62
2023-06-21T09:26:52.282Z,7.45
2023-06-21T09:29:19.910Z,7.95
2023-06-21T09:31:46.734Z,7.58
2023-06-21T09:34:15.228Z,7.51
2023-06-21T09:36:42.212Z,7.53
2023-06-21T09:39:10.830Z,7.32
2023-06-21T09:41:37.715Z,7.34
2023-06-21T09:44:04.806Z,7.76
2023-06-21T09:46:31.778Z,7.59
2023-06-21T09:49:11.459Z,7.40
2023-06-21T09:51:46.913Z,7.54
2023-06-21T09:54:13.690Z,8.33
2023-06-21T09:56:40.928Z,8.32
2023-06-21T09:59:20.830Z,7.95
2023-06-21T10:01:51.793Z,7.90
2023-06-21T10:04:19.037Z,7.73
2023-06-21T10:06:50.533Z,7.44
2023-06-21T10:09:18.014Z,7.50
2023-06-21T10:11:45.342Z,7.58
2023-06-21T10:14:26.036Z,7.91
2023-06-21T10:16:55.089Z,7.64
2023-06-21T10:19:23.922Z,7.54
2023-06-21T10:21:58.179Z,7.62
2023-06-21T10:24:27.293Z,8.04
2023-06-21T10:26:55.226Z,8.05
2023-06-21T10:29:25.006Z,8.39
2023-06-21T10:31:54.575Z,9.30
2023-06-21T10:34:25.696Z,9.09
2023-06-21T10:37:01.779Z,9.57
2023-06-21T10:39:33.291Z,9.94
2023-06-21T10:42:01.173Z,9.91
2023-06-21T10:44:29.977Z,10.62
2023-06-21T10:47:00.085Z,11.18
2023-06-21T10:49:29.534Z,10.98
2023-06-21T10:51:58.121Z,11.54
2023-06-21T10:54:26.545Z,11.75
2023-06-21T10:56:54.568Z,11.96
2023-06-21T10:59:25.174Z,12.35
2023-06-21T11:01:53.118Z,12.86
2023-06-21T11:04:20.131Z,12.64
2023-06-21T11:06:47.075Z,13.22
2023-06-21T11:09:17.922Z,13.53
2023-06-21T11:11:54.749Z,13.94
2023-06-21T11:14:33.685Z,14.31
2023-06-21T11:17:12.644Z,14.85
2023-06-21T11:19:39.954Z,15.09
2023-06-21T11:22:25.144Z,15.64
2023-06-21T11:25:01.815Z,15.83
2023-06-21T11:27:28.834Z,16.01
2023-06-21T11:30:11.474Z,16.15
2023-06-21T11:32:39.180Z,16.70
2023-06-21T11:35:09.660Z,17.00
2023-06-21T11:37:48.915Z,16.76
2023-06-21T11:40:26.346Z,16.93
2023-06-21T11:42:53.835Z,17.37
2023-06-21T11:45:33.999Z,17.56
2023-06-21T11:48:02.352Z,17.67
2023-06-21T11:50:50.310Z,17.51
2023-06-21T11:53:29.890Z,17.69
2023-06-21T11:56:03.026Z,17.84
2023-06-21T11:58:30.457Z,17.98
2023-06-21T12:00:57.617Z,17.83
2023-06-21T12:03:26.931Z,18.08
2023-06-21T12:05:56.646Z,18.13
2023-06-21T12:08:28.044Z,18.30
2023-06-21T12:10:58.924Z,18.14
2023-06-21T12:13:26.306Z,18.47
2023-06-21T12:15:58.018Z,18.87
2023-06-21T12:18:27.500Z,18.29
2023-06-21T12:21:10.518Z,18.68
2023-06-21T12:23:37.733Z,18.71
2023-06-21T12:26:05.856Z,19.57
2023-06-21T12:28:34.004Z,19.61
2023-06-21T12:31:08.733Z,19.74
2023-06-21T12:33:44.001Z,19.49
2023-06-21T12:36:24.543Z,19.51
2023-06-21T12:38:56.815Z,19.73
2023-06-21T12:41:25.689Z,19.65
2023-06-21T12:43:54.730Z,19.49
2023-06-21T12:46:22.888Z,19.68
2023-06-21T12:49:00.588Z,20.01
2023-06-21T12:51:31.205Z,20.09
2023-06-21T12:54:06.433Z,20.05
2023-06-21T12:56:35.290Z,19.59
2023-06-21T12:59:03.562Z,20.04
2023-06-21T13:01:32.563Z,19.69
2023-06-21T13:04:01.204Z,20.15
2023-06-21T13:06:28.375Z,19.95
2023-06-21T13:08:58.574Z,20.03
2023-06-21T13:11:26.469Z,20.16
2023-06-21T13:13:53.481Z,20.10
2023-06-21T13:16:20.524Z,20.43
2023-06-21T13:18:48.752Z,20.59
2023-06-21T13:21:17.625Z,20.06
2023-06-21T13:23:45.880Z,20.14
2023-06-21T13:26:13.073Z,20.93
2023-06-21T13:28:39.850Z,19.84
2023-06-21T13:31:06.619Z,20.47
2023-06-21T13:33:33.288Z,21.01
2023-06-21T13:36:18.536Z,21.95
2023-06-21T13:38:45.311Z,21.26
2023-06-21T13:41:12.547Z,21.36
2023-06-21T13:43:39.415Z,21.81
2023-06-21T13:46:06.274Z,21.60
2023-06-21T13:48:33.129Z,21.43
2023-06-21T13:50:59.908Z,21.80
2023-06-21T13:53:28.134Z,22.03
2023-06-21T13:55:54.873Z,21.84
2023-06-21T13:58:22.025Z,21.79
2023-06-21T14:00:49.118Z,21.99
2023-06-21T14:03:16.129Z,21.67
2023-06-21T14:05:43.226Z,22.02
2023-06-21T14:08:09.943Z,21.93
2023-06-21T14:10:36.792Z,22.06
2023-06-21T14:13:03.631Z,22.17
2023-06-21T14:15:30.315Z,22.18
2023-06-21T14:17:58.469Z,21.94
2023-06-21T14:20:25.446Z,22.24
2023-06-21T14:22:52.232Z,22.03
2023-06-21T14:25:19.001Z,22.46
2023-06-21T14:27:45.675Z,22.61
2023-06-21T14:30:13.036Z,21.94
2023-06-21T14:32:39.793Z,21.75
2023-06-21T14:35:07.232Z,21.63
2023-06-21T14:37:33.990Z,22.21
2023-06-21T14:40:03.675Z,21.51
2023-06-21T14:42:30.671Z,22.02
2023-06-21T14:44:57.302Z,22.06
2023-06-21T14:47:24.066Z,21.68
2023-06-21T14:49:53.292Z,22.22
2023-06-21T14:52:20.620Z,22.13
2023-06-21T14:54:49.338Z,22.60
2023-06-21T14:57:16.891Z,22.35
2023-06-21T14:59:45.551Z,22.28
2023-06-21T15:02:12.344Z,22.39
2023-06-21T15:04:39.804Z,22.78
2023-06-21T15:07:13.484Z,22.67
2023-06-21T15:09:40.314Z,22.77
2023-06-21T15:12:09.369Z,22.44
2023-06-21T15:14:36.245Z,22.45
2023-06-21T15:17:03.009Z,22.80
2023-06-21T15:19:29.727Z,22.39
2023-06-21T15:21:56.452Z,22.52
2023-06-21T15:24:23.190Z,22.50
2023-06-21T15:26:49.932Z,22.51
2023-06-21T15:29:16.757Z,22.47
2023-06-21T15:31:43.614Z,22.44
2023-06-21T15:34:12.400Z,22.54
2023-06-21T15:36:40.660Z,23.09
2023-06-21T15:39:08.473Z,22.95
2023-06-21T15:41:35.999Z,22.68
2023-06-21T15:44:03.040Z,23.04
2023-06-21T15:46:30.925Z,23.13
2023-06-21T15:48:58.492Z,23.06
2023-06-21T15:51:25.553Z,22.79
2023-06-21T15:53:56.666Z,22.96
2023-06-21T15:56:24.921Z,22.94
2023-06-21T15:58:52.170Z,23.24
2023-06-21T16:01:19.645Z,23.09
2023-06-21T16:03:48.242Z,23.06
2023-06-21T16:06:16.008Z,23.59
2023-06-21T16:08:43.357Z,23.26
2023-06-21T16:11:13.408Z,23.16
2023-06-21T16:13:47.553Z,23.81
2023-06-21T16:16:16.341Z,23.58
2023-06-21T16:18:45.825Z,23.62
2023-06-21T16:21:14.145Z,23.83
2023-06-21T16:23:41.425Z,23.81
2023-06-21T16:26:08.245Z,23.94
2023-06-21T16:28:35.554Z,23.99
2023-06-21T16:31:02.452Z,24.54
2023-06-21T16:33:29.248Z,24.36
2023-06-21T16:35:56.280Z,24.91
2023-06-21T16:38:23.421Z,24.79
2023-06-21T16:40:50.561Z,24.61
2023-06-21T16:43:17.928Z,25.01
2023-06-21T16:45:44.963Z,25.04
2023-06-21T16:48:11.890Z,24.77
2023-06-21T16:50:38.711Z,25.64
2023-06-21T16:53:05.448Z,24.92
2023-06-21T16:55:32.244Z,25.19
2023-06-21T16:57:59.200Z,25.16
2023-06-21T17:00:26.364Z,25.81
2023-06-21T17:02:54.659Z,25.45
2023-06-21T17:05:25.634Z,25.84
2023-06-21T17:07:52.963Z,25.89
2023-06-21T17:10:20.584Z,26.17
2023-06-21T17:12:47.683Z,25.90
2023-06-21T17:15:15.250Z,25.60
2023-06-21T17:17:43.268Z,25.78
2023-06-21T17:20:10.839Z,26.20
2023-06-21T17:22:37.754Z,26.37
2023-06-21T17:25:05.269Z,26.05
2023-06-21T17:27:31.905Z,26.35
2023-06-21T17:29:58.744Z,26.43
2023-06-21T17:32:25.858Z,26.89
2023-06-21T17:34:52.840Z,26.91
2023-06-21T17:37:19.667Z,26.99
2023-06-21T17:39:47.028Z,27.19
2023-06-21T17:42:13.739Z,27.31
2023-06-21T17:44:40.700Z,28.00
2023-06-21T17:47:07.512Z,28.38
2023-06-21T17:49:34.158Z,28.37
2023-06-21T17:52:00.825Z,28.83
2023-06-21T17:54:27.507Z,29.04
2023-06-21T17:56:54.157Z,29.14
2023-06-21T17:59:21.032Z,29.40
2023-06-21T18:01:48.407Z,29.40
2023-06-21T18:04:15.416Z,29.49
2023-06-21T18:06:42.874Z,29.79
2023-06-21T18:09:09.565Z,29.91
2023-06-21T18:11:40.166Z,30.08
2023-06-21T18:14:07.235Z,29.92
2023-06-21T18:16:33.874Z,30.08
2023-06-21T18:19:00.577Z,30.02
2023-06-21T18:21:27.363Z,30.09
2023-06-21T18:23:54.133Z,30.14
2023-06-21T18:26:20.719Z,30.44
2023-06-21T18:28:47.561Z,30.65
2023-06-21T18:31:14.218Z,30.92
2023-06-21T18:33:40.988Z,31.03
2023-06-21T18:36:07.638Z,31.21
2023-06-21T18:38:34.327Z,31.41
2023-06-21T18:41:01.070Z,31.67
2023-06-21T18:43:27.879Z,31.76
2023-06-21T18:45:54.580Z,31.98
2023-06-21T18:48:21.374Z,32.07
2023-06-21T18:50:48.140Z,32.01
2023-06-21T18:53:14.972Z,32.00
2023-06-21T18:55:41.641Z,32.29
2023-06-21T18:58:08.423Z,32.47
2023-06-21T19:00:35.066Z,32.45
2023-06-21T19:03:04.391Z,32.53
2023-06-21T19:05:31.621Z,32.46
2023-06-21T19:07:58.307Z,32.67
2023-06-21T19:10:25.046Z,32.67
2023-06-21T19:12:51.726Z,32.65
2023-06-21T19:15:18.442Z,32.78
2023-06-21T19:17:46.187Z,33.05
2023-06-21T19:20:13.195Z,32.97
2023-06-21T19:22:41.028Z,32.93
2023-06-21T19:25:08.729Z,33.04
2023-06-21T19:27:35.761Z,33.15
2023-06-21T19:30:02.456Z,32.93
2023-06-21T19:32:29.199Z,33.27
2023-06-21T19:34:55.995Z,33.36
2023-06-21T19:37:22.648Z,33.37
2023-06-21T19:39:50.404Z,33.33
2023-06-21T19:42:17.357Z,33.88
2023-06-21T19:44:45.837Z,33.84
2023-06-21T19:47:12.826Z,33.75
2023-06-21T19:49:39.569Z,34.20
2023-06-21T19:52:07.084Z,34.04
2023-06-21T19:54:34.023Z,34.47
2023-06-21T19:57:00.777Z,34.37
2023-06-21T19:59:27.665Z,34.25
2023-06-21T20:01:54.568Z,34.25
2023-06-21T20:04:21.465Z,34.61
2023-06-21T20:06:48.366Z,34.60
2023-06-21T20:09:14.997Z,34.87
2023-06-21T20:11:41.721Z,34.96
2023-06-21T20:14:08.321Z,34.97
2023-06-21T20:16:34.998Z,34.82
2023-06-21T20:19:02.562Z,35.11
2023-06-21T20:21:29.427Z,35.46
2023-06-21T20:23:56.300Z,35.68
2023-06-21T20:26:23.128Z,36.03
2023-06-21T20:28:49.858Z,36.30
2023-06-21T20:31:16.895Z,36.59
2023-06-21T20:33:43.660Z,36.57
2023-06-21T20:36:10.439Z,37.10
2023-06-21T20:38:37.214Z,37.08
2023-06-21T20:41:07.424Z,37.14
2023-06-21T20:43:36.720Z,36.86
2023-06-21T20:46:04.927Z,37.15
2023-06-21T20:48:32.589Z,37.34
2023-06-21T20:50:59.251Z,37.02
2023-06-21T20:53:30.452Z,37.27
2023-06-21T20:56:01.526Z,37.31
2023-06-21T20:58:28.884Z,36.71
2023-06-21T21:00:56.042Z,36.69
2023-06-21T21:03:23.383Z,36.93
2023-06-21T21:05:50.559Z,37.25
2023-06-21T21:08:17.267Z,36.90
2023-06-21T21:10:44.146Z,37.51
2023-06-21T21:13:11.069Z,37.36
2023-06-21T21:15:38.253Z,37.79
2023-06-21T21:18:05.230Z,37.83
2023-06-21T21:20:32.108Z,37.94
2023-06-21T21:22:58.814Z,38.47
2023-06-21T21:25:26.314Z,38.62
2023-06-21T21:27:53.130Z,38.53
2023-06-21T21:30:19.787Z,38.86
2023-06-21T21:32:46.621Z,39.10
2023-06-21T21:35:13.326Z,39.33
2023-06-21T21:37:41.133Z,39.65
2023-06-21T21:40:09.236Z,39.85
2023-06-21T21:42:36.910Z,39.46
2023-06-21T21:45:04.969Z,39.77
2023-06-21T21:47:31.658Z,39.83
2023-06-21T21:49:58.316Z,40.55
2023-06-21T21:52:43.569Z,40.06
2023-06-21T21:55:10.258Z,40.61
2023-06-21T21:57:36.883Z,40.62
2023-06-21T22:00:05.041Z,40.71
2023-06-21T22:02:40.232Z,40.91
2023-06-21T22:05:07.832Z,40.54
2023-06-21T22:07:34.508Z,41.21
2023-06-21T22:10:02.838Z,40.95
2023-06-21T22:12:29.545Z,40.79
2023-06-21T22:14:56.325Z,41.40
2023-06-21T22:17:23.225Z,41.51
2023-06-21T22:19:49.923Z,41.23
2023-06-21T22:22:20.104Z,41.59
2023-06-21T22:24:46.983Z,41.09
2023-06-21T22:27:13.741Z,41.24
2023-06-21T22:29:41.183Z,41.36
2023-06-21T22:32:09.041Z,42.19
2023-06-21T22:34:40.526Z,42.14
2023-06-21T22:37:07.531Z,41.94
2023-06-21T22:39:34.256Z,41.96
2023-06-21T22:42:01.082Z,41.72
2023-06-21T22:44:27.743Z,41.53
2023-06-21T22:46:56.200Z,41.45
2023-06-21T22:49:24.177Z,41.32
2023-06-21T22:51:50.978Z,41.75
2023-06-21T22:54:17.647Z,41.45
2023-06-21T22:56:44.390Z,41.47
2023-06-21T22:59:11.056Z,42.01
2023-06-21T23:01:37.770Z,41.62
2023-06-21T23:04:04.965Z,41.95
2023-06-21T23:06:31.805Z,42.29
2023-06-21T23:08:58.460Z,42.08
2023-06-21T23:11:26.602Z,42.08
2023-06-21T23:13:57.310Z,42.41
2023-06-21T23:16:25.423Z,42.07
2023-06-21T23:18:54.259Z,42.55
2023-06-21T23:21:27.672Z,42.69
2023-06-21T23:23:54.702Z,42.34
2023-06-21T23:26:27.300Z,42.56
2023-06-21T23:28:56.450Z,42.56
2023-06-21T23:31:23.830Z,42.70
2023-06-21T23:33:50.731Z,42.39
2023-06-21T23:36:17.579Z,42.56
2023-06-21T23:38:54.672Z,43.22
2023-06-21T23:41:25.359Z,42.96
2023-06-21T23:44:05.906Z,43.18
2023-06-21T23:46:33.971Z,43.52
2023-06-21T23:49:03.085Z,43.53
2023-06-21T23:51:33.212Z,43.87
2023-06-21T23:54:00.073Z,44.07
2023-06-21T23:56:27.729Z,43.62
2023-06-21T23:58:54.964Z,43.75
